Time;durP1;ratioP1;P1;durP2;ratioP2;P2;SDS_P1;SDS_P2;PMS_P1;PMS_P2;Temp;Humidity;BMP_temperature;BMP_pressure;BME280_temperature;BME280_humidity;BME280_pressure;Samples;Min_cycle;Max_cycle;Signal;HPM_P1;HPM_P2
2023/10/18 00:00:33;;;;;;;26.42;13.23;;;;;;;-144.73;100.00;54551.38;4858873;29;20041;-72
2023/10/18 00:03:01;;;;;;;25.33;12.90;;;;;;;-144.73;100.00;54559.59;4874331;29;20047;-71
2023/10/18 00:05:27;;;;;;;23.83;13.70;;;;;;;-144.73;100.00;54518.53;4858307;29;20040;-72
2023/10/18 00:07:52;;;;;;;21.73;12.25;;;;;;;-144.73;100.00;54518.53;4859837;29;20029;-72
2023/10/18 00:10:18;;;;;;;27.00;12.13;;;;;;;-144.73;100.00;54518.53;4860484;29;20039;-73
2023/10/18 00:12:44;;;;;;;27.95;13.95;;;;;;;-144.73;100.00;54551.38;4881670;29;20040;-71
2023/10/18 00:15:11;;;;;;;27.00;13.07;;;;;;;-144.73;100.00;54518.53;4867719;29;20068;-72
2023/10/18 00:17:37;;;;;;;24.80;12.27;;;;;;;-144.73;100.00;54518.53;4860346;29;20109;-72
2023/10/18 00:20:08;;;;;;;28.75;11.48;;;;;;;-144.73;100.00;54551.38;4870315;29;20124;-71
2023/10/18 00:22:34;;;;;;;26.35;12.15;;;;;;;-144.73;100.00;54539.06;4889661;29;20040;-72
2023/10/18 00:25:00;;;;;;;31.50;13.20;;;;;;;-144.73;100.00;54510.31;4868395;29;20119;-72
2023/10/18 00:27:25;;;;;;;27.00;11.20;;;;;;;-144.73;100.00;54506.22;4871725;29;20029;-73
2023/10/18 00:29:54;;;;;;;20.30;10.77;;;;;;;-144.73;100.00;54518.53;4866251;29;20108;-72
2023/10/18 00:32:20;;;;;;;18.58;11.18;;;;;;;-144.73;100.00;54510.31;4871764;29;20029;-72
2023/10/18 00:34:45;;;;;;;23.92;12.40;;;;;;;-144.73;100.00;54518.53;4876410;29;20033;-72
2023/10/18 00:37:11;;;;;;;27.85;11.73;;;;;;;-144.73;100.00;54506.22;4876875;29;20024;-72
2023/10/18 00:39:36;;;;;;;21.30;10.50;;;;;;;-144.73;100.00;54502.13;4867906;29;20044;-72
2023/10/18 00:44:54;;;;;;;27.55;11.57;;;;;;;-144.73;100.00;54539.06;4885246;29;20041;-72
2023/10/18 00:47:22;;;;;;;21.25;11.60;;;;;;;-144.73;100.00;54485.69;4888167;29;20027;-72
2023/10/18 00:49:52;;;;;;;26.27;10.93;;;;;;;-144.73;100.00;54551.38;4867657;29;20060;-73
2023/10/18 00:52:19;;;;;;;30.92;10.75;;;;;;;-144.73;100.00;54526.75;4863954;29;20446;-72
2023/10/18 00:54:46;;;;;;;21.20;10.65;;;;;;;-144.73;100.00;54539.06;4871481;29;20068;-72
2023/10/18 00:57:12;;;;;;;21.25;10.63;;;;;;;-144.73;100.00;54539.06;4868125;29;20033;-72
2023/10/18 00:59:38;;;;;;;24.08;10.10;;;;;;;-144.73;100.00;54543.16;4868115;29;20040;-73
2023/10/18 01:02:10;;;;;;;19.33;10.35;;;;;;;-144.73;100.00;54524.69;4865620;29;20066;-72
2023/10/18 01:04:36;;;;;;;24.17;10.85;;;;;;;-144.73;100.00;54502.13;4866265;29;20040;-72
2023/10/18 01:07:19;;;;;;;20.80;9.85;;;;;;;-144.73;100.00;54563.69;4866436;29;20025;-72
2023/10/18 01:09:48;;;;;;;17.70;10.05;;;;;;;-144.73;100.00;54526.75;4867883;29;20045;-72
2023/10/18 01:12:17;;;;;;;18.77;10.23;;;;;;;-144.73;100.00;54502.13;4864323;29;20025;-73
2023/10/18 01:14:43;;;;;;;22.45;9.43;;;;;;;-144.73;100.00;54539.06;4856919;29;20037;-72
2023/10/18 01:17:08;;;;;;;20.67;9.43;;;;;;;-144.73;100.00;54506.22;4874203;29;20025;-72
2023/10/18 01:19:35;;;;;;;21.77;10.63;;;;;;;-144.73;100.00;54514.44;4873736;29;20105;-72
2023/10/18 01:22:02;;;;;;;18.13;10.75;;;;;;;-144.73;100.00;54551.38;4857513;29;20232;-72
2023/10/18 01:24:34;;;;;;;23.98;10.50;;;;;;;-144.73;100.00;54541.13;4858687;29;20512;-72
2023/10/18 01:27:03;;;;;;;;;;;;;;;-144.73;100.00;54530.84;4858128;29;20144;-72
2023/10/18 01:29:29;;;;;;;27.27;9.95;;;;;;;-144.73;100.00;54508.28;4872142;29;19920;-72
2023/10/18 01:31:55;;;;;;;25.08;11.00;;;;;;;-144.73;100.00;54530.84;4874347;29;20116;-72
2023/10/18 01:34:21;;;;;;;23.70;11.68;;;;;;;-144.73;100.00;54547.28;4855892;29;20223;-72
2023/10/18 01:36:47;;;;;;;20.15;10.73;;;;;;;-144.73;100.00;54518.53;4857287;29;20128;-72
2023/10/18 01:39:21;;;;;;;19.90;10.43;;;;;;;-144.73;100.00;54551.38;4857399;29;20029;-72
2023/10/18 01:41:53;;;;;;;21.27;10.98;;;;;;;-144.73;100.00;54551.38;4870791;29;20021;-72
2023/10/18 01:44:27;;;;;;;19.45;10.13;;;;;;;-144.73;100.00;54592.44;4856919;29;20029;-72
2023/10/18 01:46:55;;;;;;;20.55;10.10;;;;;;;-144.73;100.00;54539.06;4857423;29;20032;-72
2023/10/18 01:49:24;;;;;;;21.08;10.65;;;;;;;-144.73;100.00;54559.59;4856814;29;20032;-72
2023/10/18 01:51:52;;;;;;;22.63;11.40;;;;;;;-144.73;100.00;54551.38;4857228;29;20052;-73
2023/10/18 01:54:18;;;;;;;24.63;12.55;;;;;;;-144.73;100.00;54522.63;4856813;29;20052;-72
2023/10/18 01:56:47;;;;;;;20.58;10.20;;;;;;;-144.73;100.00;54526.75;4857001;29;20064;-72
2023/10/18 01:59:14;;;;;;;18.75;10.00;;;;;;;-144.73;100.00;54522.63;4846709;29;20021;-72
2023/10/18 02:01:40;;;;;;;18.13;10.00;;;;;;;-144.73;100.00;54530.84;4852131;29;20033;-72
2023/10/18 02:04:23;;;;;;;21.10;10.20;;;;;;;-144.73;100.00;54477.47;4867627;29;20553;-73
2023/10/18 02:06:50;;;;;;;20.33;9.65;;;;;;;-144.73;100.00;54580.13;4856965;29;20036;-72
2023/10/18 02:09:16;;;;;;;31.70;9.98;;;;;;;-144.73;100.00;54510.31;4872391;29;20029;-72
2023/10/18 02:11:43;;;;;;;18.33;10.32;;;;;;;-144.73;100.00;54539.06;4874174;29;20108;-72
2023/10/18 02:14:09;;;;;;;21.30;9.05;;;;;;;-144.73;100.00;54506.22;4856805;29;20057;-72
2023/10/18 02:16:34;;;;;;;22.55;10.35;;;;;;;-144.73;100.00;54520.59;4856231;29;20044;-72
2023/10/18 02:19:00;;;;;;;21.55;9.35;;;;;;;-144.73;100.00;54510.31;4856903;29;20029;-72
2023/10/18 02:21:26;;;;;;;17.02;8.88;;;;;;;-144.73;100.00;54510.31;4872769;29;20630;-72
2023/10/18 02:23:52;;;;;;;20.00;10.38;;;;;;;-144.73;100.00;54530.84;4856849;29;20021;-72
2023/10/18 02:26:30;;;;;;;18.15;8.05;;;;;;;-144.73;100.00;54502.13;4872690;29;20041;-72
2023/10/18 02:28:56;;;;;;;24.83;10.52;;;;;;;-144.73;100.00;54551.38;4858307;29;20052;-72
2023/10/18 02:31:22;;;;;;;19.08;10.82;;;;;;;-144.73;100.00;54495.97;4856501;29;20045;-72
2023/10/18 02:33:48;;;;;;;21.35;9.82;;;;;;;-144.73;100.00;54502.13;4856737;29;20073;-72
2023/10/18 02:36:20;;;;;;;15.80;8.63;;;;;;;-144.73;100.00;54506.22;4856190;29;20568;-72
2023/10/18 02:38:46;;;;;;;15.75;8.75;;;;;;;-144.73;100.00;54571.91;4852218;29;20534;-72
2023/10/18 02:41:15;;;;;;;18.80;8.88;;;;;;;-144.73;100.00;54473.38;4872871;29;20037;-72
2023/10/18 02:43:48;;;;;;;20.85;9.55;;;;;;;-144.73;100.00;54506.22;4872635;29;20025;-72
2023/10/18 02:46:16;;;;;;;23.05;10.18;;;;;;;-144.73;100.00;54500.06;4856354;29;20168;-72
2023/10/18 02:48:44;;;;;;;17.77;9.20;;;;;;;-144.73;100.00;54518.53;4872772;29;20081;-72
2023/10/18 02:51:13;;;;;;;19.13;9.18;;;;;;;-144.73;100.00;54498.00;4872769;29;20055;-72
2023/10/18 02:53:41;;;;;;;20.83;9.82;;;;;;;-144.73;100.00;54481.59;4879150;29;20049;-72
2023/10/18 02:56:17;;;;;;;17.70;8.98;;;;;;;-144.73;100.00;54561.63;4864981;29;20128;-72
2023/10/18 02:58:43;;;;;;;15.48;8.18;;;;;;;-144.73;100.00;54510.31;4866021;29;20243;-72
2023/10/18 03:01:09;;;;;;;18.48;8.38;;;;;;;-144.73;100.00;54514.44;4866792;29;20041;-73
2023/10/18 03:03:34;;;;;;;14.88;7.88;;;;;;;-144.73;100.00;54522.63;4859901;29;20073;-72
2023/10/18 03:06:06;;;;;;;15.63;7.25;;;;;;;-144.73;100.00;54498.00;4858372;29;20046;-72
2023/10/18 03:08:32;;;;;;;20.85;8.30;;;;;;;-144.73;100.00;54555.47;4859122;29;20037;-72
2023/10/18 03:11:00;;;;;;;21.30;9.45;;;;;;;-144.73;100.00;54522.63;4861635;29;20041;-72
2023/10/18 03:13:26;;;;;;;16.65;8.98;;;;;;;-144.73;100.00;54559.59;4866722;29;20057;-72
2023/10/18 03:16:05;;;;;;;15.43;8.20;;;;;;;-144.73;100.00;54539.06;4870388;29;20062;-72
2023/10/18 03:18:34;;;;;;;16.20;8.60;;;;;;;-144.73;100.00;54522.63;4868928;29;20051;-72
2023/10/18 03:21:04;;;;;;;18.42;8.80;;;;;;;-144.73;100.00;54489.81;4871526;29;20037;-72
2023/10/18 03:23:31;;;;;;;16.98;8.93;;;;;;;-144.73;100.00;54530.84;4867671;29;20025;-72
2023/10/18 03:26:00;;;;;;;16.50;7.78;;;;;;;-144.73;100.00;54506.22;4865491;29;20518;-72
2023/10/18 03:28:34;;;;;;;16.70;8.48;;;;;;;-144.73;100.00;54498.00;4873735;29;20033;-72
2023/10/18 03:31:20;;;;;;;17.98;8.82;;;;;;;-144.73;100.00;54549.31;4879237;29;20077;-72
2023/10/18 03:33:48;;;;;;;20.60;8.52;;;;;;;-144.73;100.00;54514.44;4882031;29;20028;-72
2023/10/18 03:36:25;;;;;;;21.35;9.27;;;;;;;-144.73;100.00;54539.06;4863662;29;20029;-72
2023/10/18 03:38:54;;;;;;;22.42;10.40;;;;;;;-144.73;100.00;54485.69;4879084;29;20032;-72
2023/10/18 03:41:25;;;;;;;20.90;9.25;;;;;;;-144.73;100.00;54498.00;4865874;29;20044;-72
2023/10/18 03:43:58;;;;;;;22.95;8.43;;;;;;;-144.73;100.00;54510.31;4859260;29;20037;-72
2023/10/18 03:46:29;;;;;;;24.63;9.10;;;;;;;-144.73;100.00;54553.44;4858820;29;20033;-72
2023/10/18 03:48:56;;;;;;;22.92;11.27;;;;;;;-144.73;100.00;54539.06;4859157;29;20017;-72
2023/10/18 03:51:24;;;;;;;14.50;7.65;;;;;;;-144.73;100.00;54549.31;4860681;29;20052;-72
2023/10/18 03:53:53;;;;;;;16.58;8.07;;;;;;;-144.73;100.00;54551.38;4883526;29;20473;-73
2023/10/18 03:56:22;;;;;;;17.08;7.82;;;;;;;-144.73;100.00;54506.22;4868547;29;20125;-72
2023/10/18 03:59:00;;;;;;;14.70;6.88;;;;;;;-144.73;100.00;54539.06;4888042;29;20024;-72
2023/10/18 04:01:41;;;;;;;18.58;8.45;;;;;;;-144.73;100.00;54543.16;4868086;29;20041;-72
2023/10/18 04:04:07;;;;;;;14.57;8.50;;;;;;;-144.73;100.00;54551.38;4868439;29;20053;-72
2023/10/18 04:06:35;;;;;;;18.75;8.15;;;;;;;-144.73;100.00;54522.63;4880562;29;20158;-71
2023/10/18 04:09:13;;;;;;;16.27;7.07;;;;;;;-144.73;100.00;54547.28;4880419;29;20068;-71
2023/10/18 04:11:41;;;;;;;14.30;8.75;;;;;;;-144.73;100.00;54539.06;4868211;29;20045;-71
2023/10/18 04:14:09;;;;;;;22.52;7.90;;;;;;;-144.73;100.00;54526.75;4855107;29;20033;-72
2023/10/18 04:16:35;;;;;;;15.05;8.15;;;;;;;-144.73;100.00;54518.53;4858258;29;20025;-72
2023/10/18 04:19:00;;;;;;;15.23;7.03;;;;;;;-144.73;100.00;54539.06;4858867;29;20025;-71
2023/10/18 04:21:26;;;;;;;20.80;7.82;;;;;;;-144.73;100.00;54526.75;4858057;29;20093;-72
2023/10/18 04:23:56;;;;;;;15.07;7.95;;;;;;;-144.73;100.00;54539.06;4857666;29;20025;-72
2023/10/18 04:26:25;;;;;;;17.02;9.23;;;;;;;-144.73;100.00;54539.06;4859987;29;20041;-72
2023/10/18 04:28:54;;;;;;;16.60;7.88;;;;;;;-144.73;100.00;54508.28;4859129;29;20025;-72
2023/10/18 04:31:21;;;;;;;19.00;7.88;;;;;;;-144.73;100.00;54571.91;4857219;29;20052;-72
2023/10/18 04:33:50;;;;;;;16.17;8.55;;;;;;;-144.73;100.00;54528.81;4882883;29;20161;-72
2023/10/18 04:36:16;;;;;;;13.52;7.45;;;;;;;-144.73;100.00;54547.28;4867056;29;20073;-72
2023/10/18 04:38:43;;;;;;;14.88;7.78;;;;;;;-144.73;100.00;54557.53;4885748;29;20031;-72
2023/10/18 04:41:10;;;;;;;21.35;8.38;;;;;;;-144.73;100.00;54491.84;4869226;29;20049;-72
2023/10/18 04:43:37;;;;;;;16.20;9.40;;;;;;;-144.73;100.00;54547.28;4856226;29;20032;-72
2023/10/18 04:51:27;;;;;;;14.73;8.02;;;;;;;-144.73;100.00;54539.06;4874065;29;20037;-72
2023/10/18 04:54:01;;;;;;;15.57;7.18;;;;;;;-144.73;100.00;54522.63;4857975;29;20044;-72
2023/10/18 04:56:34;;;;;;;14.20;8.25;;;;;;;-144.73;100.00;54571.91;4856791;29;20041;-72
2023/10/18 04:59:06;;;;;;;19.02;6.93;;;;;;;-144.73;100.00;54543.16;4858189;29;20410;-72
2023/10/18 05:01:41;;;;;;;;;;;;;;;-144.73;100.00;54506.22;4859901;29;20061;-72
2023/10/18 05:06:59;;;;;;;15.32;7.03;;;;;;;-144.73;100.00;54518.53;4881750;29;20107;-72
2023/10/18 05:12:10;;;;;;;13.05;6.25;;;;;;;-144.73;100.00;54522.63;4881555;29;20036;-72
2023/10/18 05:14:42;;;;;;;18.48;8.10;;;;;;;-144.73;100.00;54489.81;4845457;29;20037;-72
2023/10/18 05:17:11;;;;;;;20.50;8.65;;;;;;;-144.73;100.00;54526.75;4857791;29;20039;-71
2023/10/18 05:19:42;;;;;;;24.02;9.25;;;;;;;-144.73;100.00;54489.81;4869191;29;20036;-71
2023/10/18 05:22:09;;;;;;;17.38;8.43;;;;;;;-144.73;100.00;54514.44;4857724;29;20051;-71
2023/10/18 05:24:38;;;;;;;19.30;9.63;;;;;;;-144.73;100.00;54555.47;4856633;29;20096;-72
2023/10/18 05:27:19;;;;;;;18.13;9.35;;;;;;;-144.73;100.00;54502.13;4856740;29;20032;-71
2023/10/18 05:29:51;;;;;;;20.63;8.38;;;;;;;-144.73;100.00;54539.06;4856128;29;20061;-72
2023/10/18 05:32:37;;;;;;;14.07;6.97;;;;;;;-144.73;100.00;54520.59;4873165;29;20084;-71
2023/10/18 05:35:21;;;;;;;18.52;7.53;;;;;;;-144.73;100.00;54473.38;4855886;29;20037;-72
2023/10/18 05:38:06;;;;;;;16.88;7.85;;;;;;;-144.73;100.00;54526.75;4856740;29;20107;-72
2023/10/18 05:43:07;;;;;;;21.27;8.95;;;;;;;-144.73;100.00;54539.06;4872259;29;20083;-71
2023/10/18 05:45:33;;;;;;;14.82;7.38;;;;;;;-144.73;100.00;54530.84;4855335;29;20029;-72
2023/10/18 05:48:12;;;;;;;14.50;6.95;;;;;;;-144.73;100.00;54559.59;4874974;29;20029;-72
2023/10/18 05:50:39;;;;;;;19.13;8.27;;;;;;;-144.73;100.00;54524.69;4855414;29;20174;-71
2023/10/18 05:53:11;;;;;;;30.58;13.30;;;;;;;-144.73;100.00;54522.63;4860347;29;20031;-72
2023/10/18 05:55:38;;;;;;;38.20;18.33;;;;;;;-144.73;100.00;54518.53;4873018;29;20041;-71
2023/10/18 05:58:06;;;;;;;24.60;11.07;;;;;;;-144.73;100.00;54522.63;4874679;29;20036;-71
2023/10/18 06:00:36;;;;;;;25.50;9.55;;;;;;;-144.73;100.00;54522.63;4871937;29;20580;-72
2023/10/18 06:03:07;;;;;;;32.13;17.33;;;;;;;-144.73;100.00;54547.28;4857687;29;20401;-72
2023/10/18 06:05:35;;;;;;;30.33;16.33;;;;;;;-144.73;100.00;54514.44;4873493;29;20112;-72
2023/10/18 06:08:01;;;;;;;25.80;12.85;;;;;;;-144.73;100.00;54551.38;4868708;29;20032;-71
2023/10/18 06:10:26;;;;;;;28.23;11.40;;;;;;;-144.73;100.00;54563.69;4875364;29;20029;-71
2023/10/18 06:13:05;;;;;;;19.48;8.10;;;;;;;-144.73;100.00;54518.53;4857891;29;20107;-71
2023/10/18 06:15:34;;;;;;;18.80;7.50;;;;;;;-144.73;100.00;54514.44;4857766;29;20041;-72
2023/10/18 06:18:00;;;;;;;18.05;9.00;;;;;;;-144.73;100.00;54518.53;4858618;29;20037;-72
2023/10/18 06:20:38;;;;;;;21.50;8.98;;;;;;;-144.73;100.00;54539.06;4872871;29;20037;-72
2023/10/18 06:23:08;;;;;;;16.70;8.07;;;;;;;-144.73;100.00;54545.22;4868443;29;20036;-72
2023/10/18 06:25:49;;;;;;;18.02;7.95;;;;;;;-144.73;100.00;54530.84;4867238;29;20420;-72
2023/10/18 06:28:21;;;;;;;23.17;8.15;;;;;;;-144.73;100.00;54510.31;4874418;29;20025;-72
2023/10/18 06:34:32;;;;;;;21.45;7.75;;;;;;;-144.73;100.00;54510.31;4811404;29;20038;-72
2023/10/18 06:37:07;;;;;;;21.30;6.67;;;;;;;-144.73;100.00;54489.81;4807951;29;20157;-71
2023/10/18 06:39:51;;;;;;;19.25;7.28;;;;;;;-144.73;100.00;54512.38;4858909;29;20280;-72
2023/10/18 06:42:29;;;;;;;16.60;6.03;;;;;;;-144.73;100.00;54526.75;4864150;29;20051;-71
2023/10/18 06:45:15;;;;;;;16.25;6.07;;;;;;;-144.73;100.00;54539.06;4887413;29;20044;-71
2023/10/18 06:47:44;;;;;;;10.88;5.90;;;;;;;-144.73;100.00;54502.13;4883442;29;20366;-72
2023/10/18 06:50:26;;;;;;;21.88;7.57;;;;;;;-144.73;100.00;54530.84;4871326;29;20060;-72
2023/10/18 06:53:06;;;;;;;23.80;7.25;;;;;;;-144.73;100.00;54539.06;4876857;29;20068;-72
2023/10/18 06:56:06;;;;;;;21.13;7.00;;;;;;;-144.73;100.00;54522.63;4862734;29;20052;-72
2023/10/18 07:01:19;;;;;;;21.02;7.43;;;;;;;-144.73;100.00;54571.91;4880268;29;20041;-71
2023/10/18 07:06:44;;;;;;;27.83;9.65;;;;;;;-144.73;100.00;54514.44;4878337;29;20037;-72
2023/10/18 07:12:03;;;;;;;16.63;8.98;;;;;;;-144.73;100.00;54539.06;4876365;29;20032;-73
2023/10/18 07:14:38;;;;;;;28.35;9.77;;;;;;;-144.73;100.00;54539.06;4864223;29;20093;-73
2023/10/18 07:17:09;;;;;;;18.48;8.07;;;;;;;-144.73;100.00;54539.06;4872306;29;20076;-72
2023/10/18 07:20:15;;;;;;;;;;;;;;;;;;;;;
2023/10/18 07:22:55;;;;;;;20.83;8.00;;;;;;;-144.73;100.00;54526.75;4859661;29;20080;-72
2023/10/18 07:25:32;;;;;;;22.90;7.63;;;;;;;-144.73;100.00;54551.38;4860406;29;20037;-73
2023/10/18 07:28:01;;;;;;;17.95;7.93;;;;;;;-144.73;100.00;54559.59;4877624;29;20060;-71
2023/10/18 07:30:42;;;;;;;19.65;8.13;;;;;;;-144.73;100.00;54518.53;4877751;29;20041;-71
2023/10/18 07:33:12;;;;;;;22.80;9.52;;;;;;;-144.73;100.00;54506.22;4866816;29;20127;-72
2023/10/18 07:35:45;;;;;;;25.88;7.93;;;;;;;-144.73;100.00;54543.16;4869582;29;20080;-72
2023/10/18 07:38:25;;;;;;;19.77;7.50;;;;;;;-144.73;100.00;54584.22;4879022;29;20665;-72
2023/10/18 07:41:00;;;;;;;15.73;7.28;;;;;;;-144.73;100.00;54543.16;4858838;29;20037;-73
2023/10/18 07:43:55;;;;;;;19.58;8.07;;;;;;;-144.73;100.00;54567.81;4869639;29;20068;-72
2023/10/18 07:46:34;;;;;;;18.50;7.60;;;;;;;-144.73;100.00;54485.69;4867614;29;20033;-73
2023/10/18 07:49:34;;;;;;;20.60;7.05;;;;;;;-144.73;100.00;54522.63;4861048;29;20029;-72
2023/10/18 07:52:01;;;;;;;15.98;6.55;;;;;;;-144.73;100.00;54563.69;4889842;29;20053;-71
2023/10/18 07:54:27;;;;;;;10.65;6.50;;;;;;;-144.73;100.00;54555.47;4865587;29;20100;-71
2023/10/18 07:56:54;;;;;;;16.85;6.75;;;;;;;-144.73;100.00;54580.13;4882139;29;20477;-72
2023/10/18 07:59:27;;;;;;;15.70;6.22;;;;;;;-144.73;100.00;54555.47;4862370;29;20060;-71
2023/10/18 08:04:38;;;;;;;17.15;6.97;;;;;;;-144.73;100.00;54539.06;4880651;29;20409;-72
2023/10/18 08:07:04;;;;;;;10.60;5.90;;;;;;;-144.73;100.00;54543.16;4859352;29;20033;-72
2023/10/18 08:09:30;;;;;;;18.33;6.35;;;;;;;-144.73;100.00;54571.91;4863862;29;20025;-71
2023/10/18 08:12:00;;;;;;;17.08;6.68;;;;;;;-144.73;100.00;54539.06;4852124;29;20033;-71
2023/10/18 08:14:26;;;;;;;12.82;6.15;;;;;;;-144.73;100.00;54539.06;4873539;29;20037;-72
2023/10/18 08:17:09;;;;;;;17.30;6.93;;;;;;;-144.73;100.00;54551.38;4858946;29;20032;-71
2023/10/18 08:19:44;;;;;;;10.05;6.05;;;;;;;-144.73;100.00;54551.38;4859488;29;20088;-72
2023/10/18 08:24:35;;;;;;;16.63;7.90;;;;;;;-144.73;100.00;54547.28;4876008;29;20604;-72
2023/10/18 08:27:09;;;;;;;11.73;6.18;;;;;;;-144.73;100.00;54518.53;4859626;29;20037;-72
2023/10/18 08:29:39;;;;;;;14.05;6.20;;;;;;;-144.73;100.00;54592.44;4874490;29;20033;-73
2023/10/18 08:32:17;;;;;;;9.95;5.78;;;;;;;-144.73;100.00;54543.16;4876430;29;20025;-72
2023/10/18 08:34:48;;;;;;;15.02;6.45;;;;;;;-144.73;100.00;54547.28;4862664;29;20033;-72
2023/10/18 08:37:14;;;;;;;12.95;6.45;;;;;;;-144.73;100.00;54543.16;4858093;29;20112;-72
2023/10/18 08:39:40;;;;;;;10.38;5.35;;;;;;;-144.73;100.00;54571.91;4858457;29;20119;-72
2023/10/18 08:42:08;;;;;;;12.52;5.85;;;;;;;-144.73;100.00;54588.31;4874669;29;20028;-72
2023/10/18 08:44:36;;;;;;;14.63;5.40;;;;;;;-144.73;100.00;54563.69;4866350;29;20488;-72
2023/10/18 08:47:15;;;;;;;18.40;5.35;;;;;;;-144.73;100.00;54606.78;4860659;29;20045;-72
2023/10/18 08:49:51;;;;;;;8.30;5.22;;;;;;;-144.73;100.00;54522.63;4870604;29;20041;-72
2023/10/18 08:52:23;;;;;;;9.77;4.88;;;;;;;-144.73;100.00;54576.00;4858606;29;20068;-72
2023/10/18 08:58:28;;;;;;;10.20;5.80;;;;;;;-144.73;100.00;54539.06;4875981;29;20052;-72
2023/10/18 09:01:21;;;;;;;10.55;5.20;;;;;;;-144.73;100.00;54563.69;4852685;29;20196;-72
2023/10/18 09:04:11;;;;;;;14.70;5.68;;;;;;;-144.73;100.00;54514.44;4864529;29;20047;-71
2023/10/18 09:07:42;;;;;;;9.43;4.70;;;;;;;-144.73;100.00;54559.59;4861178;29;20089;-71
2023/10/18 09:10:13;;;;;;;10.70;3.75;;;;;;;-144.73;100.00;54522.63;4883318;29;20194;-71
2023/10/18 09:16:11;;;;;;;8.30;4.10;;;;;;;-144.73;100.00;54580.13;4876259;29;20133;-71
2023/10/18 09:19:01;;;;;;;13.75;4.57;;;;;;;-144.73;100.00;54547.28;4866434;29;20117;-70
2023/10/18 09:22:01;;;;;;;7.07;4.00;;;;;;;-144.73;100.00;54530.84;4854598;29;20404;-72
2023/10/18 09:24:54;;;;;;;9.63;4.35;;;;;;;-144.73;100.00;54571.91;4863158;29;20037;-72
2023/10/18 09:27:45;;;;;;;8.65;3.70;;;;;;;-144.73;100.00;54539.06;4874071;29;20092;-73
2023/10/18 09:30:35;;;;;;;7.95;3.55;;;;;;;-144.73;100.00;54561.63;4880893;29;20157;-73
2023/10/18 09:33:31;;;;;;;5.70;2.80;;;;;;;-144.73;100.00;54547.28;4862341;29;20079;-73
2023/10/18 09:36:29;;;;;;;7.78;3.28;;;;;;;-144.73;100.00;54522.63;4860704;29;20051;-72
2023/10/18 09:39:21;;;;;;;7.57;3.00;;;;;;;-144.73;100.00;54563.69;4870863;29;20048;-73
2023/10/18 09:42:15;;;;;;;7.93;2.97;;;;;;;-144.73;100.00;54555.47;4855847;29;20056;-72
2023/10/18 09:45:08;;;;;;;7.25;2.70;;;;;;;-144.73;100.00;54580.13;4861407;29;20076;-71
2023/10/18 09:47:59;;;;;;;;;;;;;;;-144.73;100.00;54571.91;4861405;29;20074;-71
2023/10/18 09:50:49;;;;;;;6.03;2.65;;;;;;;-144.73;100.00;54543.16;4877539;29;19927;-72
2023/10/18 09:53:49;;;;;;;9.35;3.08;;;;;;;-144.73;100.00;54539.06;4861422;29;20063;-72
2023/10/18 12:44:29;;;;;;;6.45;2.20;;;;;;;-144.73;62.23;54498.00;4839400;29;20102;-69
2023/10/18 12:46:54;;;;;;;4.10;2.40;;;;;;;-144.73;62.50;54489.81;4843919;29;20102;-69
2023/10/18 12:49:22;;;;;;;5.43;2.83;;;;;;;-144.73;62.20;54604.75;4843494;29;20108;-69
2023/10/18 12:51:57;;;;;;;7.93;2.80;;;;;;;-144.73;60.54;54467.22;4823802;29;20590;-69
2023/10/18 12:54:36;;;;;;;5.13;2.80;;;;;;;-144.73;60.49;54487.75;4844706;29;20086;-67
2023/10/18 12:57:15;;;;;;;11.50;3.15;;;;;;;-144.73;61.82;54491.84;4843619;29;20085;-70
2023/10/18 13:02:49;;;;;;;4.75;2.78;;;;;;;-144.73;59.89;54498.00;4842757;29;20037;-69
2023/10/18 13:05:15;;;;;;;5.40;2.78;;;;;;;-144.73;62.22;54498.00;4843466;29;20034;-68
2023/10/18 13:07:44;;;;;;;6.32;2.83;;;;;;;-144.73;63.01;54539.06;4845047;29;20037;-69
2023/10/18 13:10:11;;;;;;;6.00;3.40;;;;;;;-144.73;64.43;54487.75;4827533;29;20125;-67
2023/10/18 13:12:53;;;;;;;3.72;2.58;;;;;;;-144.73;64.30;54510.31;4835223;29;20038;-68
2023/10/18 13:15:19;;;;;;;6.18;2.70;;;;;;;-144.73;66.72;54539.06;4822816;29;20038;-69
2023/10/18 13:17:45;;;;;;;7.78;4.03;;;;;;;-144.73;67.05;54493.91;4842314;29;20041;-69
2023/10/18 13:20:24;;;;;;;5.70;2.88;;;;;;;-144.73;65.55;54514.44;4823001;29;20408;-69
2023/10/18 13:22:55;;;;;;;4.72;2.97;;;;;;;-144.73;68.33;54510.31;4823459;29;20054;-69
2023/10/18 13:25:37;;;;;;;7.22;3.30;;;;;;;-144.73;65.24;54489.81;4842844;29;20098;-68
2023/10/18 13:28:06;;;;;;;3.42;2.25;;;;;;;-144.73;65.61;54510.31;4823828;29;20033;-68
2023/10/18 13:30:32;;;;;;;4.05;2.67;;;;;;;-144.73;66.22;54510.31;4822268;29;20054;-68
2023/10/18 13:33:11;;;;;;;8.88;2.33;;;;;;;-144.73;64.26;54489.81;4847540;29;20091;-70
2023/10/18 13:35:39;;;;;;;7.68;2.42;;;;;;;-144.73;64.31;54512.38;4822360;29;20042;-70
2023/10/18 13:38:05;;;;;;;6.03;2.28;;;;;;;-144.73;65.24;54477.47;4823453;29;20026;-67
2023/10/18 13:40:36;;;;;;;6.60;2.50;;;;;;;-144.73;65.41;54512.38;4821107;29;20029;-68
2023/10/18 13:43:07;;;;;;;;;;;;;;;-144.73;64.95;54518.53;4823166;29;20044;-68
2023/10/18 13:45:33;;;;;;;7.07;3.08;;;;;;;-144.73;65.43;54487.75;4822434;29;19984;-68
2023/10/18 13:48:03;;;;;;;9.13;2.58;;;;;;;-144.73;65.87;54493.91;4846872;29;20034;-69
2023/10/18 13:50:35;;;;;;;8.63;2.08;;;;;;;-144.73;64.58;54508.28;4821577;29;20071;-68
2023/10/18 13:53:01;;;;;;;12.32;1.88;;;;;;;-144.73;66.92;54518.53;4845795;29;20050;-74
2023/10/18 13:55:27;;;;;;;6.25;2.30;;;;;;;-144.73;66.22;54444.66;4823421;29;20065;-69
2023/10/18 13:57:54;;;;;;;5.35;2.67;;;;;;;-144.73;67.65;54485.69;4845771;29;20034;-69
2023/10/18 14:00:22;;;;;;;7.03;2.35;;;;;;;-144.73;66.19;54604.75;4842657;29;20074;-70
2023/10/18 14:02:48;;;;;;;3.15;1.98;;;;;;;-144.73;67.37;54452.84;4842494;29;20086;-68
2023/10/18 14:05:14;;;;;;;5.18;2.08;;;;;;;-144.73;64.83;54530.84;4822896;29;20033;-69
2023/10/18 14:07:41;;;;;;;6.25;2.10;;;;;;;-144.73;64.89;54477.47;4846493;29;20030;-68
2023/10/18 14:10:28;;;;;;;9.55;2.45;;;;;;;-144.73;67.13;54502.13;4837975;29;20037;-67
2023/10/18 14:12:55;;;;;;;13.75;2.33;;;;;;;-144.73;66.12;54510.31;4839294;29;20033;-68
2023/10/18 14:15:21;;;;;;;11.00;4.90;;;;;;;-144.73;68.47;54498.00;4837670;29;20035;-69
2023/10/18 14:17:47;;;;;;;10.10;2.40;;;;;;;-144.73;67.94;54510.31;4823499;29;20044;-70
2023/10/18 14:20:13;;;;;;;7.93;2.10;;;;;;;-144.73;69.03;54477.47;4826183;29;20500;-69
2023/10/18 14:22:40;;;;;;;6.47;2.55;;;;;;;-144.73;68.10;54469.28;4849620;29;20026;-70
2023/10/18 14:25:13;;;;;;;8.90;2.90;;;;;;;-144.73;69.02;54500.06;4849323;29;20080;-70
2023/10/18 14:27:40;;;;;;;6.95;2.30;;;;;;;-144.73;69.53;54493.91;4849170;29;20118;-68
2023/10/18 14:30:16;;;;;;;4.32;2.25;;;;;;;-144.73;69.14;54469.28;4847960;29;20045;-69
2023/10/18 14:32:45;;;;;;;7.53;2.72;;;;;;;-144.73;69.84;54485.69;4828051;29;20026;-70
2023/10/18 14:35:20;;;;;;;4.00;2.53;;;;;;;-144.73;70.11;54506.22;4842360;29;20069;-70
2023/10/18 14:37:49;;;;;;;10.18;2.50;;;;;;;-144.73;70.78;54506.22;4822526;29;20097;-70
2023/10/18 14:40:23;;;;;;;8.98;2.35;;;;;;;-144.73;72.15;54477.47;4824311;29;20072;-71
2023/10/18 14:42:50;;;;;;;11.10;3.25;;;;;;;-144.73;72.97;54481.59;4837931;29;20036;-70
2023/10/18 14:45:17;;;;;;;7.07;2.83;;;;;;;-144.73;71.17;54514.44;4821203;29;20060;-71
2023/10/18 14:47:43;;;;;;;8.50;2.72;;;;;;;-144.73;71.76;54469.28;4823803;29;20044;-69
2023/10/18 14:50:10;;;;;;;6.97;2.92;;;;;;;-144.73;72.53;54539.06;4818370;29;20030;-68
2023/10/18 14:52:42;;;;;;;7.85;3.03;;;;;;;-144.73;73.14;54461.06;4822884;29;20048;-70
2023/10/18 14:55:11;;;;;;;6.55;2.88;;;;;;;-144.73;72.69;54469.28;4824945;29;20038;-70
2023/10/18 14:57:43;;;;;;;7.38;2.75;;;;;;;-144.73;74.32;54514.44;4826142;29;20034;-70